Time;durP1;ratioP1;P1;durP2;ratioP2;P2;SDS_P1;SDS_P2;PMS_P1;PMS_P2;Temp;Humidity;BMP_temperature;BMP_pressure;BME280_temperature;BME280_humidity;BME280_pressure;Samples;Min_cycle;Max_cycle;Signal;HPM_P1;HPM_P2
2022/06/24 00:02:03;;;;;;;3.95;2.13;;;;;;;25.36;49.90;94823.56;5019251;28;20067;-50
2022/06/24 00:04:30;;;;;;;5.20;2.15;;;;;;;25.44;49.92;94829.16;5022805;28;20037;-51
2022/06/24 00:06:58;;;;;;;4.18;2.30;;;;;;;25.39;49.76;94822.53;5020598;28;20037;-54
2022/06/24 00:09:28;;;;;;;3.80;2.28;;;;;;;25.37;49.95;94821.59;5019212;28;20040;-51
2022/06/24 00:12:08;;;;;;;3.40;1.75;;;;;;;25.27;49.75;94828.00;5020908;28;20137;-51
2022/06/24 00:14:34;;;;;;;3.33;1.77;;;;;;;25.25;50.07;94839.47;5021042;28;20025;-52
2022/06/24 00:17:02;;;;;;;3.78;1.88;;;;;;;25.26;49.96;94840.19;5022276;28;20033;-51
2022/06/24 00:19:31;;;;;;;6.25;3.92;;;;;;;25.19;50.12;94841.56;5023389;28;20390;-50
2022/06/24 00:22:08;;;;;;;4.82;2.55;;;;;;;25.22;50.20;94845.25;5020357;28;20121;-50
2022/06/24 00:24:34;;;;;;;7.68;3.17;;;;;;;25.19;49.96;94857.97;5020086;28;20021;-50
2022/06/24 00:27:00;;;;;;;7.65;2.13;;;;;;;25.18;50.39;94848.28;5021687;28;20033;-50
2022/06/24 00:29:32;;;;;;;4.10;2.10;;;;;;;25.21;50.26;94854.72;5003794;28;20032;-48
2022/06/24 00:32:07;;;;;;;4.68;2.50;;;;;;;25.19;50.14;94868.19;5020217;28;20664;-50
2022/06/24 00:34:33;;;;;;;3.83;2.20;;;;;;;25.17;50.05;94860.50;5023101;28;20033;-50
2022/06/24 00:37:23;;;;;;;5.05;2.35;;;;;;;25.22;50.06;94867.84;5035812;28;20152;-49
2022/06/24 00:39:49;;;;;;;3.35;1.80;;;;;;;25.21;49.96;94871.84;5022162;28;20067;-49
2022/06/24 00:42:14;;;;;;;5.80;1.85;;;;;;;25.24;49.86;94876.25;5020656;28;20026;-51
2022/06/24 00:44:45;;;;;;;4.03;1.85;;;;;;;25.26;50.09;94868.28;5005198;28;20492;-49
2022/06/24 00:47:11;;;;;;;5.10;2.22;;;;;;;25.23;49.96;94874.81;5011152;28;20033;-51
2022/06/24 00:49:36;;;;;;;5.75;2.20;;;;;;;25.21;50.00;94865.66;5019538;28;20021;-52
2022/06/24 00:52:08;;;;;;;3.92;1.85;;;;;;;25.20;50.09;94856.72;5018045;28;20030;-51
2022/06/24 00:54:34;;;;;;;5.82;2.05;;;;;;;25.19;50.14;94863.44;5003410;28;20033;-50
2022/06/24 00:56:59;;;;;;;3.45;2.00;;;;;;;25.17;50.13;94863.22;5019535;28;20427;-51
2022/06/24 00:59:25;;;;;;;3.65;1.80;;;;;;;25.15;50.21;94868.47;5023549;28;20550;-50
2022/06/24 01:01:51;;;;;;;4.45;2.05;;;;;;;25.09;50.75;94872.56;5018913;28;20037;-53
2022/06/24 01:04:16;;;;;;;3.97;2.05;;;;;;;25.08;50.60;94866.38;5022436;28;20025;-50
2022/06/24 01:06:43;;;;;;;3.85;1.98;;;;;;;24.99;50.63;94866.78;5020508;28;20083;-49
2022/06/24 01:09:09;;;;;;;5.38;2.15;;;;;;;25.07;50.46;94864.91;5020039;28;20036;-51
2022/06/24 01:11:42;;;;;;;6.85;2.00;;;;;;;25.19;50.40;94868.91;5021457;28;20059;-53
2022/06/24 01:14:07;;;;;;;5.00;2.10;;;;;;;25.17;50.49;94876.91;5019524;28;20029;-50
2022/06/24 01:16:33;;;;;;;3.33;2.10;;;;;;;25.15;50.46;94884.88;5005304;28;20102;-51
2022/06/24 01:19:06;;;;;;;5.85;2.97;;;;;;;25.14;50.50;94872.47;5018928;28;21495;-49
2022/06/24 01:21:34;;;;;;;5.53;1.95;;;;;;;25.19;50.17;94873.66;5017893;28;20034;-49
2022/06/24 01:24:19;;;;;;;4.55;1.80;;;;;;;25.20;50.42;94880.56;5019613;28;20102;-51
2022/06/24 01:26:47;;;;;;;6.95;1.92;;;;;;;25.15;50.56;94873.94;5020015;28;20033;-50
2022/06/24 01:29:12;;;;;;;3.83;1.80;;;;;;;25.16;50.59;94861.75;5020921;28;20117;-50
2022/06/24 01:31:38;;;;;;;3.50;2.10;;;;;;;25.21;50.33;94866.38;5018158;28;20140;-51
2022/06/24 01:34:04;;;;;;;3.90;1.88;;;;;;;25.18;50.59;94867.41;5023610;28;20033;-50
2022/06/24 01:36:30;;;;;;;4.43;2.00;;;;;;;25.20;50.16;94875.84;5019044;28;20503;-50
2022/06/24 01:38:55;;;;;;;4.00;2.00;;;;;;;25.21;50.43;94877.31;5020648;28;20068;-50
2022/06/24 01:41:21;;;;;;;3.05;1.95;;;;;;;25.19;50.31;94868.91;5019301;28;20397;-50
2022/06/24 01:43:46;;;;;;;3.60;2.45;;;;;;;25.22;50.17;94862.38;5021288;28;20047;-50
2022/06/24 01:46:12;;;;;;;3.50;2.35;;;;;;;25.21;50.33;94866.38;5018778;28;20132;-50
2022/06/24 01:48:40;;;;;;;4.13;2.03;;;;;;;25.19;50.18;94868.91;5021512;28;20103;-51
2022/06/24 01:51:06;;;;;;;3.85;2.33;;;;;;;25.15;50.48;94857.53;5021838;28;20032;-50
2022/06/24 01:53:31;;;;;;;6.10;3.50;;;;;;;25.16;50.37;94853.56;5017361;28;20097;-51
2022/06/24 01:55:57;;;;;;;6.72;3.47;;;;;;;25.07;50.64;94855.97;5019957;28;20029;-52
2022/06/24 01:58:23;;;;;;;6.10;2.92;;;;;;;25.12;50.39;94853.13;5020504;28;20041;-52
2022/06/24 02:00:49;;;;;;;5.22;3.20;;;;;;;25.10;50.46;94838.53;5018683;28;20492;-51
2022/06/24 02:03:14;;;;;;;7.88;3.35;;;;;;;25.10;50.57;94831.06;5020398;28;20029;-50
2022/06/24 02:05:40;;;;;;;8.13;3.28;;;;;;;25.05;50.75;94823.69;5024220;28;20661;-51
2022/06/24 02:08:05;;;;;;;9.40;4.18;;;;;;;25.04;50.35;94819.50;4989333;28;20123;-51
2022/06/24 02:13:27;;;;;;;7.50;4.70;;;;;;;25.04;50.33;94822.22;5021457;28;20080;-50
2022/06/24 02:16:03;;;;;;;8.90;5.35;;;;;;;25.01;50.52;94826.00;5020853;28;20025;-51
2022/06/24 02:18:29;;;;;;;7.88;5.28;;;;;;;25.00;50.76;94829.97;5023083;28;20053;-51
2022/06/24 02:20:55;;;;;;;8.38;4.68;;;;;;;24.96;50.76;94835.00;5022652;28;20768;-50
2022/06/24 02:23:20;;;;;;;7.05;4.40;;;;;;;24.95;50.65;94836.25;5022660;28;20018;-51
2022/06/24 02:25:47;;;;;;;8.98;4.80;;;;;;;24.92;50.62;94840.03;5024881;28;20036;-51
2022/06/24 02:28:13;;;;;;;10.65;5.20;;;;;;;24.97;50.64;94836.47;5019948;28;20032;-52
2022/06/24 02:30:38;;;;;;;7.93;5.53;;;;;;;24.96;50.75;94837.75;5022329;28;20037;-50
2022/06/24 02:33:05;;;;;;;9.88;4.88;;;;;;;24.88;50.94;94839.59;5023098;28;20471;-51
2022/06/24 02:35:30;;;;;;;9.45;4.93;;;;;;;24.86;51.06;94847.59;5022762;28;20028;-51
2022/06/24 02:37:56;;;;;;;6.90;4.05;;;;;;;24.82;51.39;94856.63;5022328;28;20025;-50
2022/06/24 02:43:15;;;;;;;6.57;3.50;;;;;;;24.86;51.58;94863.25;5015520;28;20107;-50
2022/06/24 02:45:44;;;;;;;5.55;3.45;;;;;;;24.85;51.28;94843.38;5006382;28;20025;-50
2022/06/24 02:48:10;;;;;;;6.17;3.30;;;;;;;24.84;51.77;94844.66;5007776;28;20045;-51
2022/06/24 02:50:43;;;;;;;6.95;2.80;;;;;;;24.82;51.76;94841.69;5010048;28;20419;-50
2022/06/24 02:53:09;;;;;;;5.53;2.97;;;;;;;24.77;51.65;94838.31;5021521;28;20256;-51
2022/06/24 02:55:34;;;;;;;5.47;3.28;;;;;;;24.73;51.84;94835.91;5022000;28;20479;-51
2022/06/24 02:58:00;;;;;;;5.85;3.20;;;;;;;24.74;52.39;94844.81;5020954;28;20095;-50
2022/06/24 03:00:25;;;;;;;6.13;3.10;;;;;;;24.83;52.00;94837.00;5010491;28;20022;-51
2022/06/24 03:02:51;;;;;;;6.70;2.70;;;;;;;24.76;52.22;94832.13;5008196;28;20053;-51
2022/06/24 03:05:16;;;;;;;6.47;3.10;;;;;;;24.83;52.04;94848.63;5012602;28;20025;-50
2022/06/24 03:07:42;;;;;;;5.97;2.85;;;;;;;24.81;51.78;94849.69;5009321;28;20129;-50
2022/06/24 03:10:08;;;;;;;4.28;2.78;;;;;;;24.83;51.81;94848.63;5007823;28;20428;-53
2022/06/24 03:12:33;;;;;;;5.03;2.50;;;;;;;24.87;51.63;94842.84;5010730;28;20243;-51
2022/06/24 03:14:59;;;;;;;6.63;2.78;;;;;;;24.85;52.13;94846.13;5010660;28;20465;-51
2022/06/24 03:17:24;;;;;;;9.27;3.20;;;;;;;24.84;51.88;94861.06;5004530;28;20038;-51
2022/06/24 03:19:50;;;;;;;3.00;2.40;;;;;;;24.85;51.72;94854.31;5010086;28;20040;-50
2022/06/24 03:22:15;;;;;;;4.90;2.75;;;;;;;24.88;51.54;94856.00;5023538;28;20477;-50
2022/06/24 03:24:41;;;;;;;4.38;2.40;;;;;;;24.74;51.59;94858.47;5021667;28;20040;-51
2022/06/24 03:27:06;;;;;;;4.75;3.17;;;;;;;24.69;51.84;94859.31;5022604;28;20887;-51
2022/06/24 03:29:32;;;;;;;4.80;2.72;;;;;;;24.63;52.02;94850.47;5022664;28;20025;-50
2022/06/24 03:31:57;;;;;;;7.55;3.13;;;;;;;24.63;52.18;94861.41;5022564;28;20053;-50
2022/06/24 03:34:22;;;;;;;5.38;2.83;;;;;;;24.53;52.47;94857.59;5021284;28;20009;-50
2022/06/24 03:36:49;;;;;;;6.28;3.00;;;;;;;24.54;52.49;94864.53;5021437;28;20601;-50
2022/06/24 03:39:14;;;;;;;5.63;2.65;;;;;;;24.53;52.53;94871.25;5020834;28;20384;-50
2022/06/24 03:41:40;;;;;;;6.22;3.05;;;;;;;24.53;52.31;94868.53;5019386;28;20091;-53
2022/06/24 03:44:05;;;;;;;4.97;2.70;;;;;;;24.54;52.87;94872.72;5014919;28;20060;-52
2022/06/24 03:46:31;;;;;;;6.38;3.13;;;;;;;24.56;52.28;94859.31;5021725;28;20032;-50
2022/06/24 03:48:56;;;;;;;7.13;3.03;;;;;;;24.57;52.47;94858.03;5022310;28;20030;-51
2022/06/24 03:51:22;;;;;;;7.60;3.10;;;;;;;24.67;51.91;94856.38;5020198;28;20030;-53
2022/06/24 03:53:47;;;;;;;6.20;3.15;;;;;;;24.79;51.60;94874.06;5008180;28;20519;-51
2022/06/24 03:56:13;;;;;;;8.15;4.13;;;;;;;24.82;51.63;94879.22;5015780;28;20025;-51
2022/06/24 03:58:38;;;;;;;7.97;3.17;;;;;;;24.83;51.17;94870.50;5021850;28;20037;-51
2022/06/24 04:01:04;;;;;;;7.53;3.53;;;;;;;24.88;51.36;94861.47;5007751;28;20022;-53
2022/06/24 04:03:29;;;;;;;9.73;3.85;;;;;;;25.00;51.19;94857.31;5011270;28;20044;-51
2022/06/24 04:05:55;;;;;;;5.53;3.08;;;;;;;25.06;51.19;94855.22;5010405;28;20676;-50
2022/06/24 04:08:20;;;;;;;6.50;3.30;;;;;;;25.10;51.17;94852.91;4986984;28;20207;-51
2022/06/24 04:10:46;;;;;;;6.22;3.10;;;;;;;25.12;51.17;94858.59;5022265;28;20048;-50
2022/06/24 04:13:11;;;;;;;4.80;3.03;;;;;;;25.22;50.90;94864.41;5018865;28;20103;-50
2022/06/24 04:15:46;;;;;;;5.32;2.85;;;;;;;25.33;50.45;94857.47;5012985;28;20064;-51
2022/06/24 04:18:11;;;;;;;6.75;2.95;;;;;;;25.43;50.22;94871.44;5004957;28;20028;-52
2022/06/24 04:20:37;;;;;;;6.10;2.85;;;;;;;25.49;50.21;94872.06;5021834;28;20045;-51
2022/06/24 04:23:02;;;;;;;7.10;2.80;;;;;;;25.45;50.18;94874.38;5022857;28;20029;-50
2022/06/24 04:25:28;;;;;;;5.82;2.90;;;;;;;25.67;49.39;94879.44;5021390;28;20025;-51
2022/06/24 04:27:53;;;;;;;6.72;3.03;;;;;;;25.60;49.45;94869.84;5021763;28;20029;-54
2022/06/24 04:30:19;;;;;;;8.13;3.22;;;;;;;25.83;48.90;94879.84;5017780;28;20026;-51
2022/06/24 04:32:44;;;;;;;6.43;3.40;;;;;;;25.81;48.61;94884.38;5018534;28;20515;-54
2022/06/24 04:35:10;;;;;;;5.75;3.50;;;;;;;25.90;48.72;94881.94;5021921;28;20017;-52
2022/06/24 04:37:39;;;;;;;7.43;3.97;;;;;;;26.01;48.65;94892.66;5021112;28;20033;-52
2022/06/24 04:40:12;;;;;;;6.82;3.30;;;;;;;25.92;48.87;94895.09;5021476;28;20022;-52
2022/06/24 04:42:37;;;;;;;7.28;3.40;;;;;;;25.97;48.90;94897.72;5017376;28;20037;-52
2022/06/24 04:45:04;;;;;;;5.90;3.65;;;;;;;26.00;48.39;94891.19;5012566;28;20732;-52
2022/06/24 04:47:29;;;;;;;6.63;3.47;;;;;;;25.87;48.55;94899.44;5008531;28;20060;-52
2022/06/24 04:49:55;;;;;;;4.57;3.22;;;;;;;25.83;48.45;94898.28;5009282;28;20025;-52
2022/06/24 04:52:21;;;;;;;9.10;4.90;;;;;;;26.04;48.50;94894.34;5008835;28;20037;-51
2022/06/24 04:54:47;;;;;;;8.07;4.90;;;;;;;26.26;47.76;94891.09;5006262;28;20076;-52
2022/06/24 04:57:13;;;;;;;8.38;5.00;;;;;;;25.99;48.22;94900.66;5012454;28;20033;-51
2022/06/24 04:59:38;;;;;;;8.10;4.32;;;;;;;26.05;48.09;94904.03;5011598;28;20033;-50
2022/06/24 05:02:04;;;;;;;6.15;4.05;;;;;;;26.17;47.66;94894.28;5009221;28;20396;-51
2022/06/24 05:04:29;;;;;;;7.30;4.20;;;;;;;26.29;47.61;94895.56;5021392;28;20778;-51
2022/06/24 05:06:55;;;;;;;7.55;4.13;;;;;;;26.13;48.16;94899.38;5022193;28;20022;-50
2022/06/24 05:09:20;;;;;;;10.02;5.28;;;;;;;26.02;48.42;94896.88;5020016;28;20025;-52
2022/06/24 05:11:48;;;;;;;11.32;4.57;;;;;;;26.21;48.22;94905.66;5018501;28;20025;-50
2022/06/24 05:14:14;;;;;;;7.53;4.20;;;;;;;26.15;47.99;94905.03;5019919;28;20029;-52
2022/06/24 05:16:41;;;;;;;7.10;4.30;;;;;;;26.04;48.28;94907.28;5019740;28;20036;-52
2022/06/24 05:19:07;;;;;;;7.10;4.47;;;;;;;26.18;48.53;94914.94;5018904;28;20084;-51
2022/06/24 05:21:33;;;;;;;7.00;4.13;;;;;;;26.21;48.60;94916.63;5002888;28;20100;-50
2022/06/24 05:23:58;;;;;;;7.72;4.60;;;;;;;26.15;48.64;94907.78;5004807;28;20456;-51
2022/06/24 05:26:24;;;;;;;8.60;4.75;;;;;;;26.42;48.34;94903.72;5016807;28;20706;-50
2022/06/24 05:28:49;;;;;;;9.57;5.18;;;;;;;26.29;48.65;94912.72;5012193;28;20025;-51
2022/06/24 05:31:14;;;;;;;6.28;4.47;;;;;;;26.34;48.58;94919.34;5008019;28;20513;-51
2022/06/24 05:33:40;;;;;;;9.35;5.75;;;;;;;26.34;48.92;94919.34;5007914;28;20037;-51
2022/06/24 05:36:06;;;;;;;6.40;4.95;;;;;;;26.27;48.99;94930.19;5004691;28;20520;-51
2022/06/24 05:38:31;;;;;;;8.82;5.25;;;;;;;26.15;49.35;94934.44;5012343;28;20631;-52
2022/06/24 05:40:56;;;;;;;7.93;5.22;;;;;;;26.26;48.77;94929.44;5022869;28;20655;-51
2022/06/24 05:43:23;;;;;;;14.50;4.80;;;;;;;26.36;48.90;94938.72;5015276;28;20029;-52
2022/06/24 05:45:49;;;;;;;7.88;5.05;;;;;;;26.26;49.22;94923.97;5010932;28;20022;-52
2022/06/24 05:48:15;;;;;;;6.18;5.53;;;;;;;26.49;49.08;94931.19;5011554;28;20052;-50
2022/06/24 05:50:40;;;;;;;11.75;5.10;;;;;;;26.33;49.46;94923.34;5010675;28;20033;-50
2022/06/24 05:55:50;;;;;;;6.63;4.68;;;;;;;26.28;49.44;94935.16;5009913;28;20041;-51
2022/06/24 05:58:16;;;;;;;8.02;5.28;;;;;;;26.28;49.68;94937.91;5017849;28;20022;-51
2022/06/24 06:00:42;;;;;;;7.65;4.90;;;;;;;26.13;49.72;94942.41;5012048;28;20029;-50
2022/06/24 06:03:07;;;;;;;6.95;4.25;;;;;;;26.21;49.45;94954.94;5015534;28;20029;-52
2022/06/24 06:05:33;;;;;;;6.28;4.40;;;;;;;26.71;48.92;94951.88;5019633;28;20111;-51
2022/06/24 06:07:58;;;;;;;7.43;4.28;;;;;;;27.01;47.80;94953.69;5012781;28;20026;-51
2022/06/24 06:10:24;;;;;;;6.53;4.53;;;;;;;27.09;47.74;94940.78;5012058;28;20048;-52
2022/06/24 06:12:49;;;;;;;8.98;4.43;;;;;;;27.09;47.58;94943.50;5009860;28;20477;-51
2022/06/24 06:15:15;;;;;;;7.68;4.57;;;;;;;27.06;47.96;94939.09;5010672;28;20018;-52
2022/06/24 06:17:41;;;;;;;5.53;3.80;;;;;;;27.10;47.68;94934.03;5009397;28;20026;-51
2022/06/24 06:20:07;;;;;;;5.47;4.60;;;;;;;27.23;47.45;94927.72;5008871;28;20033;-51
2022/06/24 06:22:32;;;;;;;6.28;4.35;;;;;;;27.12;47.42;94926.00;5020828;28;20048;-52
2022/06/24 06:24:58;;;;;;;8.35;4.10;;;;;;;27.22;47.25;94913.28;5014744;28;20039;-50
2022/06/24 06:27:23;;;;;;;5.72;4.20;;;;;;;27.20;47.14;94907.59;5022466;28;20041;-50
2022/06/24 06:29:48;;;;;;;5.55;3.65;;;;;;;27.23;46.81;94914.00;5023345;28;20508;-51
2022/06/24 06:32:14;;;;;;;5.45;3.65;;;;;;;27.16;47.22;94926.41;5020997;28;20107;-51
2022/06/24 06:34:39;;;;;;;6.32;3.35;;;;;;;27.22;47.35;94918.78;5023114;28;20068;-51
2022/06/24 06:37:05;;;;;;;5.38;3.83;;;;;;;27.16;47.20;94915.44;5022259;28;20029;-52
2022/06/24 06:39:30;;;;;;;5.10;3.13;;;;;;;27.27;46.99;94909.66;5024555;28;20021;-51
2022/06/24 06:41:56;;;;;;;6.15;3.58;;;;;;;27.36;47.13;94914.66;5024000;28;20037;-50
2022/06/24 06:44:21;;;;;;;4.45;3.33;;;;;;;27.40;46.78;94912.34;5023498;28;20854;-52
2022/06/24 06:46:47;;;;;;;5.30;3.42;;;;;;;27.30;47.30;94909.31;5015610;28;20484;-50
2022/06/24 06:49:12;;;;;;;8.15;3.70;;;;;;;27.26;47.36;94908.19;5011730;28;20060;-50
2022/06/24 06:51:38;;;;;;;5.40;3.42;;;;;;;27.29;47.00;94901.63;5008600;28;20030;-50
2022/06/24 06:54:04;;;;;;;4.15;3.47;;;;;;;27.17;47.04;94894.94;5010886;28;20444;-52
2022/06/24 06:56:29;;;;;;;4.35;3.10;;;;;;;27.11;47.46;94897.09;5021222;28;20680;-51
2022/06/24 06:58:54;;;;;;;4.88;3.72;;;;;;;27.02;47.29;94900.31;5038206;28;20049;-51
2022/06/24 07:01:20;;;;;;;4.60;3.10;;;;;;;27.05;47.29;94893.75;5020666;28;20045;-50
2022/06/24 07:03:45;;;;;;;7.63;3.60;;;;;;;27.03;47.46;94896.31;5025609;28;20021;-50
2022/06/24 07:06:11;;;;;;;5.97;3.13;;;;;;;27.01;47.67;94893.38;5024367;28;20013;-51
2022/06/24 07:08:36;;;;;;;5.63;3.13;;;;;;;27.03;47.68;94895.59;5018174;28;20038;-52
2022/06/24 07:11:05;;;;;;;6.68;3.45;;;;;;;26.95;47.81;94894.78;5018320;28;20033;-51
2022/06/24 07:13:31;;;;;;;6.82;3.60;;;;;;;26.98;47.97;94891.72;5018965;28;20520;-51
2022/06/24 07:15:56;;;;;;;5.50;3.25;;;;;;;26.93;47.79;94892.56;5020568;28;20025;-52
2022/06/24 07:18:22;;;;;;;5.22;3.35;;;;;;;26.83;48.16;94886.06;5020545;28;20029;-50
2022/06/24 07:20:47;;;;;;;5.20;3.47;;;;;;;26.85;47.98;94886.25;5023380;28;20052;-50
2022/06/24 07:23:13;;;;;;;6.43;3.03;;;;;;;26.85;47.80;94896.50;5022408;28;20037;-50
2022/06/24 07:25:38;;;;;;;4.70;2.97;;;;;;;26.80;48.00;94878.91;5022662;28;20025;-51
2022/06/24 07:28:04;;;;;;;5.05;2.97;;;;;;;26.69;48.65;94877.72;5010195;28;20034;-51
2022/06/24 07:30:30;;;;;;;5.63;2.85;;;;;;;26.74;48.12;94885.06;5007729;28;20084;-50
2022/06/24 07:32:55;;;;;;;5.78;3.05;;;;;;;26.71;48.04;94880.66;5005779;28;20481;-50
2022/06/24 07:35:21;;;;;;;5.82;3.53;;;;;;;26.64;48.30;94886.81;5005796;28;20401;-51
2022/06/24 07:37:46;;;;;;;3.97;3.03;;;;;;;26.70;48.54;94887.41;5009185;28;20020;-49
2022/06/24 07:40:12;;;;;;;7.53;3.58;;;;;;;26.62;48.72;94883.84;5008136;28;20030;-51
2022/06/24 07:42:37;;;;;;;4.93;3.67;;;;;;;26.67;48.66;94880.25;5010748;28;20457;-51
2022/06/24 07:45:03;;;;;;;5.60;3.22;;;;;;;26.49;48.44;94881.19;5013649;28;20411;-49
2022/06/24 07:47:29;;;;;;;5.78;3.17;;;;;;;26.55;48.89;94884.53;5006297;28;20029;-51
2022/06/24 07:49:54;;;;;;;5.40;3.30;;;;;;;26.59;48.56;94874.72;5008035;28;20030;-52
2022/06/24 07:52:20;;;;;;;6.20;3.40;;;;;;;26.53;48.29;94887.03;5008627;28;20555;-52
2022/06/24 07:54:45;;;;;;;4.75;3.53;;;;;;;26.58;48.10;94883.47;5006765;28;20403;-51
2022/06/24 07:57:10;;;;;;;6.55;3.95;;;;;;;26.62;47.74;94878.38;5009473;28;20448;-50
2022/06/24 07:59:37;;;;;;;4.78;3.45;;;;;;;26.49;48.24;94875.69;5011325;28;20034;-50
2022/06/24 08:02:07;;;;;;;4.50;3.08;;;;;;;26.53;48.22;94881.56;5004553;28;20548;-50
2022/06/24 08:04:32;;;;;;;4.50;3.25;;;;;;;26.52;47.70;94877.38;5017614;28;20063;-53
2022/06/24 08:06:58;;;;;;;4.82;2.72;;;;;;;26.56;48.17;94869.53;5007204;28;20037;-49
2022/06/24 08:09:32;;;;;;;4.82;2.80;;;;;;;26.60;47.42;94867.22;5006342;28;20025;-50
2022/06/24 08:11:58;;;;;;;4.10;3.00;;;;;;;26.60;47.51;94865.19;5007996;28;20022;-51
2022/06/24 08:14:24;;;;;;;6.38;3.10;;;;;;;26.49;47.66;94881.19;5009689;28;20022;-52
2022/06/24 08:16:50;;;;;;;4.57;3.00;;;;;;;26.57;47.55;94866.28;5011032;28;20082;-50
2022/06/24 08:19:15;;;;;;;4.40;2.90;;;;;;;26.58;47.34;94872.50;5008920;28;20233;-51
2022/06/24 08:21:42;;;;;;;4.65;2.88;;;;;;;26.57;47.29;94876.50;5009472;28;20370;-51
2022/06/24 08:24:08;;;;;;;4.47;2.80;;;;;;;26.57;47.59;94865.53;5009735;28;20499;-50
2022/06/24 08:26:34;;;;;;;4.93;2.90;;;;;;;26.62;47.69;94868.16;5015274;28;20033;-50
2022/06/24 08:28:59;;;;;;;8.27;3.00;;;;;;;26.57;47.76;94860.06;5024110;28;20060;-50
2022/06/24 08:31:25;;;;;;;4.85;3.08;;;;;;;26.55;48.22;94862.63;5021267;28;20448;-51
2022/06/24 08:33:50;;;;;;;4.28;3.00;;;;;;;26.59;47.67;94873.94;5023532;28;20033;-49
2022/06/24 08:36:16;;;;;;;4.38;3.00;;;;;;;26.62;47.56;94867.41;5020329;28;20385;-50
2022/06/24 08:38:42;;;;;;;3.75;2.70;;;;;;;26.58;47.86;94872.50;5020955;28;20127;-50
2022/06/24 08:41:07;;;;;;;5.93;3.03;;;;;;;26.61;47.69;94865.97;5004198;28;20060;-50
2022/06/24 08:43:34;;;;;;;4.40;2.45;;;;;;;26.63;47.56;94868.88;5015529;28;20044;-51
2022/06/24 08:46:00;;;;;;;4.40;2.67;;;;;;;26.67;47.95;94880.25;5020763;28;20014;-51
2022/06/24 08:48:26;;;;;;;5.13;3.25;;;;;;;26.67;47.79;94874.78;5021466;28;20615;-50
2022/06/24 08:50:52;;;;;;;6.50;3.30;;;;;;;26.71;48.30;94886.13;5020147;28;20446;-51
2022/06/24 08:53:17;;;;;;;5.25;2.83;;;;;;;26.74;47.78;94885.06;5020237;28;20029;-51
2022/06/24 08:55:44;;;;;;;4.60;2.75;;;;;;;26.73;47.43;94872.66;5019037;28;20116;-51
2022/06/24 08:58:11;;;;;;;4.50;2.75;;;;;;;26.72;47.77;94876.66;5020569;28;20017;-50
2022/06/24 09:00:37;;;;;;;6.00;2.85;;;;;;;26.72;47.72;94876.66;5022398;28;20028;-51
2022/06/24 09:03:04;;;;;;;7.30;2.90;;;;;;;26.76;47.68;94884.00;5018110;28;20485;-51
2022/06/24 09:05:29;;;;;;;5.65;2.67;;;;;;;26.75;47.64;94881.06;5020593;28;20052;-51
2022/06/24 09:08:15;;;;;;;5.65;2.70;;;;;;;26.80;47.26;94865.22;5022038;28;20646;-51
2022/06/24 09:11:06;;;;;;;5.28;2.63;;;;;;;26.82;47.07;94870.88;5020710;28;20022;-52
2022/06/24 09:13:40;;;;;;;5.38;2.72;;;;;;;26.82;47.70;94864.69;5018562;28;20504;-51
2022/06/24 09:16:07;;;;;;;5.13;2.78;;;;;;;26.84;47.67;94862.84;5029852;28;20040;-51
2022/06/24 09:18:32;;;;;;;3.75;2.53;;;;;;;26.85;47.24;94864.34;5027531;28;20064;-50
2022/06/24 09:20:58;;;;;;;5.20;3.17;;;;;;;26.85;47.00;94864.34;5028806;28;20547;-50
2022/06/24 09:23:23;;;;;;;4.25;2.50;;;;;;;26.88;47.09;94868.75;5016196;28;20030;-50
2022/06/24 09:25:54;;;;;;;4.63;2.33;;;;;;;26.87;47.15;94856.31;5026895;28;20017;-50
2022/06/24 09:28:23;;;;;;;4.55;2.53;;;;;;;26.85;46.63;94861.59;5028635;28;20453;-51
2022/06/24 09:30:49;;;;;;;2.97;2.08;;;;;;;26.88;46.50;94857.78;5024326;28;20041;-51
2022/06/24 09:33:17;;;;;;;3.60;2.33;;;;;;;26.95;46.91;94864.63;5028740;28;20029;-50
2022/06/24 09:35:43;;;;;;;3.15;2.10;;;;;;;26.93;46.52;94862.41;5024278;28;20033;-50
2022/06/24 09:38:08;;;;;;;3.05;2.13;;;;;;;26.94;46.29;94866.63;5012652;28;20032;-49
2022/06/24 09:40:34;;;;;;;4.78;2.20;;;;;;;26.93;45.94;94859.66;5026080;28;20493;-51
2022/06/24 09:43:00;;;;;;;4.60;2.08;;;;;;;26.96;46.09;94875.03;5014940;28;20116;-51
2022/06/24 09:45:41;;;;;;;3.00;1.90;;;;;;;26.94;45.98;94874.84;5018643;28;20033;-52
2022/06/24 09:48:07;;;;;;;3.33;2.38;;;;;;;27.00;46.12;94869.97;5012708;28;20022;-52
2022/06/24 09:50:32;;;;;;;2.88;2.05;;;;;;;27.00;46.11;94874.72;5010397;28;20065;-52
2022/06/24 09:52:58;;;;;;;3.10;2.10;;;;;;;27.03;45.66;94866.16;5009977;28;20108;-53
2022/06/24 09:55:24;;;;;;;4.30;1.95;;;;;;;27.07;45.46;94874.78;4994234;28;20030;-52
2022/06/24 09:57:49;;;;;;;2.70;1.75;;;;;;;27.13;45.09;94866.41;5016256;28;20106;-50
2022/06/24 10:03:00;;;;;;;2.75;1.70;;;;;;;27.26;44.98;94880.75;5017559;28;20126;-53
2022/06/24 10:05:26;;;;;;;3.35;1.70;;;;;;;27.34;44.96;94876.09;5009821;28;20038;-52
2022/06/24 10:07:51;;;;;;;2.75;1.67;;;;;;;27.49;44.48;94876.91;5011419;28;20026;-52
2022/06/24 10:10:17;;;;;;;2.40;1.50;;;;;;;27.52;43.24;94880.59;5007922;28;20133;-51
2022/06/24 10:12:50;;;;;;;4.22;1.70;;;;;;;27.67;43.30;94875.19;5013698;28;20785;-52
2022/06/24 10:15:16;;;;;;;2.70;1.58;;;;;;;27.83;42.17;94880.97;5011254;28;21163;-52
2022/06/24 10:17:45;;;;;;;3.28;2.00;;;;;;;27.98;42.62;94883.78;5011129;28;20041;-52
2022/06/24 10:20:11;;;;;;;3.20;1.60;;;;;;;28.06;42.18;94884.53;5013946;28;20013;-52
2022/06/24 10:22:49;;;;;;;6.45;1.75;;;;;;;28.17;42.37;94895.22;5022708;28;20401;-52
2022/06/24 10:25:42;;;;;;;4.38;1.70;;;;;;;28.33;42.02;94883.03;5021275;28;20516;-52
2022/06/24 10:28:07;;;;;;;3.50;1.30;;;;;;;28.42;41.53;94877.72;5020730;28;20029;-53
2022/06/24 10:30:48;;;;;;;3.20;1.45;;;;;;;28.51;40.61;94879.94;5021250;28;20109;-52
2022/06/24 10:33:14;;;;;;;2.58;1.50;;;;;;;28.49;41.38;94870.78;5015392;28;20493;-51
2022/06/24 10:35:59;;;;;;;2.55;1.50;;;;;;;28.69;40.91;94870.66;5020234;28;20048;-51
2022/06/24 10:38:26;;;;;;;2.47;1.70;;;;;;;28.75;41.10;94871.94;5021736;28;20066;-51
2022/06/24 10:40:52;;;;;;;2.58;1.58;;;;;;;28.87;40.76;94867.56;5015802;28;20053;-52
2022/06/24 10:43:34;;;;;;;2.83;1.80;;;;;;;28.93;40.43;94873.63;5021616;28;20060;-53
2022/06/24 10:46:16;;;;;;;2.95;1.48;;;;;;;28.98;40.09;94872.69;5013796;28;20025;-51
2022/06/24 10:48:51;;;;;;;4.53;1.60;;;;;;;29.08;40.27;94868.13;5017982;28;20144;-54
2022/06/24 10:51:18;;;;;;;4.03;1.67;;;;;;;29.18;39.88;94863.53;5015680;28;20038;-52
2022/06/24 10:54:02;;;;;;;3.85;1.52;;;;;;;29.24;39.99;94861.38;5013106;28;20056;-52
2022/06/24 10:56:44;;;;;;;3.60;1.70;;;;;;;29.33;39.43;94858.06;5008733;28;20125;-50
2022/06/24 10:59:10;;;;;;;4.57;1.67;;;;;;;29.48;39.27;94863.53;5015260;28;20040;-53
2022/06/24 11:01:35;;;;;;;2.83;1.58;;;;;;;29.57;39.51;94860.22;5014470;28;20025;-53
2022/06/24 11:04:02;;;;;;;3.97;1.98;;;;;;;29.55;39.15;94851.75;5008634;28;20036;-51
2022/06/24 11:06:27;;;;;;;2.92;1.60;;;;;;;29.65;39.62;94855.41;5009961;28;20772;-52
2022/06/24 11:08:53;;;;;;;2.33;1.40;;;;;;;29.67;38.94;94861.09;5006577;28;20124;-52
2022/06/24 11:11:28;;;;;;;3.38;1.58;;;;;;;29.78;39.14;94864.91;5003254;28;20084;-52
2022/06/24 11:13:54;;;;;;;2.80;1.63;;;;;;;29.80;38.75;94851.34;5006511;28;20033;-53
2022/06/24 11:16:19;;;;;;;3.03;1.23;;;;;;;29.88;38.63;94857.59;5007433;28;20058;-54
2022/06/24 11:18:48;;;;;;;2.35;1.50;;;;;;;29.93;38.56;94853.88;5006841;28;20102;-53
2022/06/24 11:21:17;;;;;;;3.17;1.70;;;;;;;29.91;38.59;94850.97;5004467;28;20109;-54
2022/06/24 11:23:42;;;;;;;2.20;1.50;;;;;;;29.99;38.35;94851.66;5006652;28;20145;-52
2022/06/24 11:26:18;;;;;;;2.20;1.50;;;;;;;30.04;37.92;94853.47;4979735;28;20048;-55
2022/06/24 11:28:51;;;;;;;2.08;1.30;;;;;;;30.04;37.63;94842.44;5029359;28;20056;-54
2022/06/24 11:31:19;;;;;;;4.00;1.42;;;;;;;30.19;37.45;94842.38;5027264;28;20049;-53
2022/06/24 11:33:45;;;;;;;3.60;1.58;;;;;;;30.19;37.11;94836.88;5026455;28;20064;-53
2022/06/24 11:36:14;;;;;;;2.88;1.38;;;;;;;30.25;37.25;94834.63;5009444;28;20018;-54
2022/06/24 11:38:54;;;;;;;3.83;1.40;;;;;;;30.39;37.27;94824.88;5023731;28;20099;-56
2022/06/24 11:41:33;;;;;;;2.10;1.23;;;;;;;30.41;37.40;94825.03;5030054;28;20040;-54
2022/06/24 11:43:58;;;;;;;1.58;1.40;;;;;;;30.35;37.72;94827.28;5028606;28;20049;-54
2022/06/24 11:46:24;;;;;;;2.17;1.50;;;;;;;30.36;37.79;94826.00;5025026;28;20033;-51